createdAt,value
2018-08-17T07:55:27.800Z,1007.85
2018-08-17T07:56:27.813Z,1007.86
2018-08-17T07:58:20.900Z,1007.86
2018-08-17T07:59:20.862Z,1007.88
2018-08-17T08:01:14.187Z,1007.83
2018-08-17T08:02:14.158Z,1007.84
2018-08-17T08:04:07.014Z,1007.90
2018-08-17T08:05:06.957Z,1007.90
2018-08-17T08:07:00.012Z,1007.91
2018-08-17T08:07:59.998Z,1007.90
2018-08-17T08:09:52.832Z,1007.88
2018-08-17T08:10:52.806Z,1007.94
2018-08-17T08:12:45.840Z,1007.92
2018-08-17T08:13:45.846Z,1007.96
2018-08-17T08:15:39.015Z,1008.02
2018-08-17T08:16:38.906Z,1007.98
2018-08-17T08:18:32.235Z,1007.98
2018-08-17T08:19:32.216Z,1007.94
2018-08-17T08:21:25.082Z,1008.06
2018-08-17T08:22:25.023Z,1008.00
2018-08-17T08:24:17.866Z,1008.03
2018-08-17T08:25:18.456Z,1008.02
2018-08-17T08:26:17.822Z,1008.03
2018-08-17T08:27:17.806Z,1008.03
2018-08-17T08:28:17.794Z,1008.02
2018-08-17T08:29:17.765Z,1008.01
2018-08-17T08:30:17.754Z,1007.99
2018-08-17T08:31:17.735Z,1007.96
2018-08-17T08:32:17.725Z,1007.99
2018-08-17T08:33:17.701Z,1007.99
2018-08-17T08:34:17.692Z,1007.99
2018-08-17T08:35:17.666Z,1007.99
2018-08-17T08:36:17.651Z,1008.01
2018-08-17T08:37:17.698Z,1007.98
2018-08-17T08:38:17.625Z,1007.99
2018-08-17T08:39:17.604Z,1008.08
2018-08-17T08:40:17.586Z,1008.06
2018-08-17T08:41:17.580Z,1008.08
2018-08-17T08:42:17.567Z,1008.08
2018-08-17T08:43:17.540Z,1008.11
2018-08-17T08:44:17.519Z,1008.11
2018-08-17T08:45:17.505Z,1008.12
2018-08-17T08:46:17.486Z,1008.17
2018-08-17T08:47:17.487Z,1008.16
2018-08-17T08:48:17.457Z,1008.18
2018-08-17T08:49:17.453Z,1008.19
2018-08-17T08:50:17.425Z,1008.19
2018-08-17T08:51:17.416Z,1008.22
2018-08-17T08:52:17.391Z,1008.28
2018-08-17T08:53:17.372Z,1008.27
2018-08-17T08:54:17.361Z,1008.26
2018-08-17T08:55:17.341Z,1008.26
2018-08-17T08:56:17.323Z,1008.32
2018-08-17T08:57:17.306Z,1008.34
2018-08-17T08:58:17.291Z,1008.23
2018-08-17T08:59:17.279Z,1008.33
2018-08-17T09:00:17.267Z,1008.27
2018-08-17T09:01:17.238Z,1008.27
2018-08-17T09:02:17.223Z,1008.23
2018-08-17T09:03:17.203Z,1008.23
2018-08-17T09:04:17.198Z,1008.19
2018-08-17T09:05:17.171Z,1008.20
2018-08-17T09:06:17.159Z,1008.15
2018-08-17T09:07:17.133Z,1008.14
2018-08-17T09:08:17.211Z,1008.17
2018-08-17T09:09:17.100Z,1008.08
2018-08-17T09:10:17.089Z,1008.13
2018-08-17T09:11:17.078Z,1008.14
2018-08-17T09:12:17.054Z,1008.12
2018-08-17T09:13:17.030Z,1008.11
2018-08-17T09:14:17.016Z,1008.11
2018-08-17T09:15:17.001Z,1008.13
2018-08-17T09:16:16.980Z,1008.14
2018-08-17T09:17:16.965Z,1008.17
2018-08-17T09:18:16.947Z,1008.18
2018-08-17T09:19:16.936Z,1008.16
2018-08-17T09:20:16.965Z,1008.21
2018-08-17T09:21:16.907Z,1008.23
2018-08-17T09:22:16.880Z,1008.26
2018-08-17T09:23:16.863Z,1008.25
2018-08-17T09:24:16.841Z,1008.27
2018-08-17T09:25:16.838Z,1008.23
2018-08-17T09:26:16.809Z,1008.23
2018-08-17T09:27:16.793Z,1008.26
2018-08-17T09:29:16.825Z,1008.23
2018-08-17T09:30:16.815Z,1008.24
2018-08-17T09:31:16.730Z,1008.30
2018-08-17T09:32:16.726Z,1008.26
2018-08-17T09:33:16.696Z,1008.23
2018-08-17T09:34:16.677Z,1008.25
2018-08-17T09:35:16.661Z,1008.26
2018-08-17T09:36:16.644Z,1008.25
2018-08-17T09:37:16.624Z,1008.28
2018-08-17T09:38:16.615Z,1008.26
2018-08-17T09:39:16.595Z,1008.24
2018-08-17T09:40:16.578Z,1008.25
2018-08-17T09:41:16.556Z,1008.22
2018-08-17T09:42:16.546Z,1008.23
2018-08-17T09:43:16.531Z,1008.20
2018-08-17T09:44:16.515Z,1008.16
2018-08-17T09:45:16.502Z,1008.19
2018-08-17T09:46:16.480Z,1008.17
2018-08-17T09:47:16.465Z,1008.16
2018-08-17T09:48:16.448Z,1008.17
2018-08-17T09:49:16.434Z,1008.15
2018-08-17T09:50:16.418Z,1008.16
2018-08-17T09:51:16.433Z,1008.17
2018-08-17T09:52:16.387Z,1008.18
2018-08-17T09:53:16.370Z,1008.19
2018-08-17T09:54:16.356Z,1008.18
2018-08-17T09:55:16.339Z,1008.15
2018-08-17T09:56:16.323Z,1008.18
2018-08-17T09:57:16.308Z,1008.22
2018-08-17T09:58:16.289Z,1008.21
2018-08-17T09:59:16.273Z,1008.18
2018-08-17T10:00:16.261Z,1008.18
2018-08-17T10:01:16.239Z,1008.18
2018-08-17T10:02:16.232Z,1008.12
2018-08-17T10:03:16.208Z,1008.21
2018-08-17T10:04:16.264Z,1008.22
2018-08-17T10:05:16.176Z,1008.19
2018-08-17T10:06:16.158Z,1008.21
2018-08-17T10:07:16.147Z,1008.20
2018-08-17T10:08:16.127Z,1008.20
2018-08-17T10:09:16.143Z,1008.19
2018-08-17T10:10:16.093Z,1008.24
2018-08-17T10:11:16.079Z,1008.20
2018-08-17T10:12:16.056Z,1008.21
2018-08-17T10:13:16.058Z,1008.20
2018-08-17T10:14:16.027Z,1008.22
2018-08-17T10:15:16.010Z,1008.26
2018-08-17T10:16:15.987Z,1008.24
2018-08-17T10:17:15.986Z,1008.28
2018-08-17T10:18:15.959Z,1008.27
2018-08-17T10:19:15.942Z,1008.31
2018-08-17T10:20:15.933Z,1008.35
2018-08-17T10:21:16.127Z,1008.36
2018-08-17T10:22:15.893Z,1008.38
2018-08-17T10:23:15.878Z,1008.37
2018-08-17T10:24:15.858Z,1008.39
2018-08-17T10:25:15.854Z,1008.34
2018-08-17T10:26:15.824Z,1008.38
2018-08-17T10:27:15.911Z,1008.37
2018-08-17T10:28:15.793Z,1008.32
2018-08-17T10:29:15.771Z,1008.37
2018-08-17T10:30:15.759Z,1008.36
2018-08-17T10:31:15.742Z,1008.38
2018-08-17T10:32:15.729Z,1008.42
2018-08-17T10:33:15.702Z,1008.43
2018-08-17T10:34:15.693Z,1008.36
2018-08-17T10:35:15.674Z,1008.40
2018-08-17T10:36:15.656Z,1008.40
2018-08-17T10:37:15.645Z,1008.42
2018-08-17T10:38:15.623Z,1008.36
2018-08-17T10:39:15.610Z,1008.34
2018-08-17T10:40:15.594Z,1008.41
2018-08-17T10:41:15.577Z,1008.41
2018-08-17T10:42:15.562Z,1008.33
2018-08-17T10:43:15.547Z,1008.33
2018-08-17T10:44:15.527Z,1008.36
2018-08-17T10:45:15.519Z,1008.37
2018-08-17T10:46:15.503Z,1008.35
2018-08-17T10:47:15.484Z,1008.36
2018-08-17T10:48:15.468Z,1008.37
2018-08-17T10:49:15.514Z,1008.38
2018-08-17T10:50:15.445Z,1008.38
2018-08-17T10:51:15.421Z,1008.44
2018-08-17T10:52:15.412Z,1008.39
2018-08-17T10:53:15.389Z,1008.42
2018-08-17T10:54:15.375Z,1008.40
2018-08-17T10:55:15.366Z,1008.41
2018-08-17T10:56:15.347Z,1008.38
2018-08-17T10:57:15.332Z,1008.41
2018-08-17T10:58:15.318Z,1008.35
2018-08-17T10:59:15.297Z,1008.35
2018-08-17T11:00:15.277Z,1008.39
2018-08-17T11:01:15.271Z,1008.30
2018-08-17T11:02:15.253Z,1008.39
2018-08-17T11:03:15.235Z,1008.40
2018-08-17T11:04:15.220Z,1008.46
2018-08-17T11:05:15.205Z,1008.43
2018-08-17T11:06:15.187Z,1008.42
2018-08-17T11:07:15.170Z,1008.41
2018-08-17T11:08:15.155Z,1008.39
2018-08-17T11:09:15.135Z,1008.37
2018-08-17T11:10:15.125Z,1008.45
2018-08-17T11:11:15.139Z,1008.46
2018-08-17T11:12:15.095Z,1008.41
2018-08-17T11:13:15.098Z,1008.42
2018-08-17T11:14:15.075Z,1008.40
2018-08-17T11:15:15.045Z,1008.42
2018-08-17T11:16:15.028Z,1008.47
2018-08-17T11:17:15.017Z,1008.47
2018-08-17T11:18:14.993Z,1008.49
2018-08-17T11:19:14.989Z,1008.53
2018-08-17T11:20:14.964Z,1008.49
2018-08-17T11:21:14.952Z,1008.47
2018-08-17T11:22:14.932Z,1008.49
2018-08-17T11:23:14.916Z,1008.47
2018-08-17T11:24:14.901Z,1008.49
2018-08-17T11:25:14.885Z,1008.50
2018-08-17T11:26:14.870Z,1008.48
2018-08-17T11:27:14.848Z,1008.51
2018-08-17T11:28:14.836Z,1008.49
2018-08-17T11:29:14.828Z,1008.50
2018-08-17T11:30:14.801Z,1008.49
2018-08-17T11:31:14.781Z,1008.51
2018-08-17T11:32:14.772Z,1008.48
2018-08-17T11:33:14.752Z,1008.51
2018-08-17T11:34:15.553Z,1008.53
2018-08-17T11:35:14.718Z,1008.57
2018-08-17T11:36:14.707Z,1008.53
2018-08-17T11:37:14.686Z,1008.51
2018-08-17T11:38:14.672Z,1008.52
2018-08-17T11:39:14.657Z,1008.51
2018-08-17T11:40:14.638Z,1008.50
2018-08-17T11:41:14.622Z,1008.49
2018-08-17T11:42:14.605Z,1008.53
2018-08-17T11:43:14.590Z,1008.57
2018-08-17T11:44:14.568Z,1008.52
2018-08-17T11:45:14.563Z,1008.59
2018-08-17T11:46:14.539Z,1008.54
2018-08-17T11:47:14.529Z,1008.55
2018-08-17T11:48:14.508Z,1008.56
2018-08-17T11:49:14.494Z,1008.58
2018-08-17T11:50:14.473Z,1008.56
2018-08-17T11:51:14.456Z,1008.61
2018-08-17T11:52:14.444Z,1008.58
2018-08-17T11:53:14.456Z,1008.55
2018-08-17T11:54:14.412Z,1008.61
2018-08-17T11:55:14.396Z,1008.54
2018-08-17T11:56:14.376Z,1008.54
2018-08-17T11:57:15.003Z,1008.53
2018-08-17T11:58:14.350Z,1008.49
2018-08-17T11:59:14.338Z,1008.50
2018-08-17T12:00:14.313Z,1008.52
2018-08-17T12:01:14.456Z,1008.48
2018-08-17T12:02:14.280Z,1008.48
2018-08-17T12:03:14.266Z,1008.50
2018-08-17T12:04:14.250Z,1008.44
2018-08-17T12:05:14.234Z,1008.47
2018-08-17T12:06:14.213Z,1008.41
2018-08-17T12:07:14.207Z,1008.41
2018-08-17T12:08:14.240Z,1008.49
2018-08-17T12:09:14.173Z,1008.43
2018-08-17T12:10:14.154Z,1008.43
2018-08-17T12:11:14.140Z,1008.41
2018-08-17T12:12:14.122Z,1008.43
2018-08-17T12:13:14.106Z,1008.42
2018-08-17T12:14:14.090Z,1008.37
2018-08-17T12:15:14.071Z,1008.43
2018-08-17T12:16:14.063Z,1008.48
2018-08-17T12:17:14.042Z,1008.42
2018-08-17T12:18:14.033Z,1008.46
2018-08-17T12:19:14.011Z,1008.45
2018-08-17T12:20:13.995Z,1008.42
2018-08-17T12:21:13.980Z,1008.43
2018-08-17T12:22:13.964Z,1008.43
2018-08-17T12:23:13.947Z,1008.40
2018-08-17T12:24:13.959Z,1008.40
2018-08-17T12:25:13.922Z,1008.46
2018-08-17T12:26:13.898Z,1008.43
2018-08-17T12:27:13.890Z,1008.43
2018-08-17T12:28:13.859Z,1008.49
2018-08-17T12:29:13.854Z,1008.45
2018-08-17T12:30:13.837Z,1008.43
2018-08-17T12:31:13.820Z,1008.44
2018-08-17T12:32:13.866Z,1008.46
2018-08-17T12:33:13.786Z,1008.42
2018-08-17T12:34:13.773Z,1008.44
2018-08-17T12:35:13.759Z,1008.46
2018-08-17T12:36:13.747Z,1008.48
2018-08-17T12:37:13.728Z,1008.44
2018-08-17T12:38:13.715Z,1008.40
2018-08-17T12:39:13.696Z,1008.39
2018-08-17T12:40:13.724Z,1008.39
2018-08-17T12:41:13.670Z,1008.34
2018-08-17T12:42:13.647Z,1008.38
2018-08-17T12:43:13.634Z,1008.39
2018-08-17T12:44:13.619Z,1008.41
2018-08-17T12:45:13.600Z,1008.42
2018-08-17T12:46:13.579Z,1008.31
2018-08-17T12:47:13.570Z,1008.30
2018-08-17T12:48:13.554Z,1008.27
2018-08-17T12:49:13.538Z,1008.31
2018-08-17T12:50:13.527Z,1008.30
2018-08-17T12:51:13.506Z,1008.26
2018-08-17T12:52:13.548Z,1008.34
2018-08-17T12:53:13.474Z,1008.33
2018-08-17T12:54:13.476Z,1008.36
2018-08-17T12:55:13.438Z,1008.28
2018-08-17T12:56:13.428Z,1008.34
2018-08-17T12:57:13.408Z,1008.37
2018-08-17T12:58:13.405Z,1008.39
2018-08-17T12:59:13.377Z,1008.33
2018-08-17T13:00:13.359Z,1008.35
2018-08-17T13:01:13.350Z,1008.32
2018-08-17T13:02:13.327Z,1008.33
2018-08-17T13:03:13.314Z,1008.36
2018-08-17T13:04:13.293Z,1008.33
2018-08-17T13:05:13.275Z,1008.29
2018-08-17T13:06:13.263Z,1008.33
2018-08-17T13:07:13.245Z,1008.30
2018-08-17T13:08:13.223Z,1008.34
2018-08-17T13:09:13.215Z,1008.30
2018-08-17T13:10:13.196Z,1008.33
2018-08-17T13:11:13.182Z,1008.33
2018-08-17T13:12:13.161Z,1008.32
2018-08-17T13:13:13.141Z,1008.36
2018-08-17T13:14:13.151Z,1008.35
2018-08-17T13:15:13.112Z,1008.30
2018-08-17T13:16:13.098Z,1008.31
2018-08-17T13:17:13.095Z,1008.35
2018-08-17T13:18:13.062Z,1008.36
2018-08-17T13:19:13.046Z,1008.40
2018-08-17T13:20:13.029Z,1008.41
2018-08-17T13:21:13.006Z,1008.39
2018-08-17T13:22:13.001Z,1008.33
2018-08-17T13:23:13.127Z,1008.33
2018-08-17T13:24:12.977Z,1008.40
2018-08-17T13:25:12.941Z,1008.37
2018-08-17T13:26:12.937Z,1008.38
2018-08-17T13:27:12.918Z,1008.34
2018-08-17T13:28:12.895Z,1008.40
2018-08-17T13:29:12.884Z,1008.33
2018-08-17T13:30:12.864Z,1008.37
2018-08-17T13:31:12.843Z,1008.36
2018-08-17T13:32:12.828Z,1008.40
2018-08-17T13:33:12.813Z,1008.38
2018-08-17T13:34:12.795Z,1008.37
2018-08-17T13:35:12.788Z,1008.38
2018-08-17T13:36:12.849Z,1008.37
2018-08-17T13:37:12.745Z,1008.42
2018-08-17T13:38:12.728Z,1008.37
2018-08-17T13:39:12.719Z,1008.37
2018-08-17T13:40:12.694Z,1008.32
2018-08-17T13:41:12.680Z,1008.36
2018-08-17T13:42:12.719Z,1008.34
2018-08-17T13:43:13.479Z,1008.38
2018-08-17T13:44:12.626Z,1008.41
2018-08-17T13:45:12.612Z,1008.42
2018-08-17T13:46:12.596Z,1008.36
2018-08-17T13:47:12.577Z,1008.35
2018-08-17T13:48:12.560Z,1008.32
2018-08-17T13:49:12.543Z,1008.29
2018-08-17T13:50:12.530Z,1008.33
2018-08-17T13:51:12.508Z,1008.30
2018-08-17T13:52:12.499Z,1008.30
2018-08-17T13:53:12.476Z,1008.37
2018-08-17T13:54:12.467Z,1008.27
2018-08-17T13:55:12.437Z,1008.31
2018-08-17T13:56:12.433Z,1008.29
2018-08-17T13:57:12.408Z,1008.34
2018-08-17T13:58:12.390Z,1008.29
2018-08-17T13:59:12.382Z,1008.29
2018-08-17T14:00:12.365Z,1008.30
2018-08-17T14:01:12.369Z,1008.26
2018-08-17T14:02:12.342Z,1008.32
2018-08-17T14:03:12.308Z,1008.30
2018-08-17T14:04:12.282Z,1008.27
2018-08-17T14:05:12.271Z,1008.31
2018-08-17T14:06:12.257Z,1008.32
2018-08-17T14:07:12.238Z,1008.28
2018-08-17T14:08:12.267Z,1008.38
2018-08-17T14:09:12.208Z,1008.32
2018-08-17T14:10:12.304Z,1008.35
2018-08-17T14:11:12.174Z,1008.38
2018-08-17T14:12:12.148Z,1008.31
2018-08-17T14:13:12.136Z,1008.40
2018-08-17T14:14:12.116Z,1008.43
2018-08-17T14:15:12.100Z,1008.42
2018-08-17T14:16:12.098Z,1008.39
2018-08-17T14:17:12.066Z,1008.45
2018-08-17T14:18:12.049Z,1008.46
2018-08-17T14:19:12.032Z,1008.50
2018-08-17T14:20:12.012Z,1008.49
2018-08-17T14:21:11.995Z,1008.52
2018-08-17T14:22:12.031Z,1008.47
2018-08-17T14:23:11.961Z,1008.50
2018-08-17T14:24:11.944Z,1008.46
2018-08-17T14:25:11.925Z,1008.50
2018-08-17T14:26:11.907Z,1008.48
2018-08-17T14:27:11.891Z,1008.49
2018-08-17T14:28:11.873Z,1008.51
2018-08-17T14:29:11.860Z,1008.51
2018-08-17T14:30:11.836Z,1008.56
2018-08-17T14:31:11.820Z,1008.55
2018-08-17T14:32:11.801Z,1008.53
2018-08-17T14:33:11.787Z,1008.54
2018-08-17T14:34:11.815Z,1008.55
2018-08-17T14:35:11.801Z,1008.57
2018-08-17T14:36:11.732Z,1008.65
2018-08-17T14:37:11.709Z,1008.64
2018-08-17T14:38:11.718Z,1008.74
2018-08-17T14:39:11.678Z,1008.68
2018-08-17T14:40:11.692Z,1008.62
2018-08-17T14:41:11.639Z,1008.69
2018-08-17T14:42:11.634Z,1008.72
2018-08-17T14:43:11.611Z,1008.71
2018-08-17T14:44:11.602Z,1008.68
2018-08-17T14:45:11.566Z,1008.66
2018-08-17T14:46:11.562Z,1008.69
2018-08-17T14:47:11.533Z,1008.63
2018-08-17T14:48:11.520Z,1008.69
2018-08-17T14:49:11.501Z,1008.73
2018-08-17T14:50:11.483Z,1008.74
2018-08-17T14:51:11.465Z,1008.73
2018-08-17T14:52:11.445Z,1008.72
2018-08-17T14:53:11.433Z,1008.72
2018-08-17T14:54:11.412Z,1008.77
2018-08-17T14:55:11.391Z,1008.74
2018-08-17T14:56:11.374Z,1008.71
2018-08-17T14:57:11.362Z,1008.70
2018-08-17T14:58:11.343Z,1008.77
2018-08-17T14:59:11.324Z,1008.70
2018-08-17T15:00:11.310Z,1008.80
2018-08-17T15:01:11.353Z,1008.83
2018-08-17T15:02:11.265Z,1008.86
2018-08-17T15:03:11.247Z,1008.81
2018-08-17T15:04:11.227Z,1008.89
2018-08-17T15:05:11.215Z,1008.83
2018-08-17T15:06:12.078Z,1008.85
2018-08-17T15:07:11.173Z,1008.78
2018-08-17T15:08:11.155Z,1008.82
2018-08-17T15:09:11.142Z,1008.88
2018-08-17T15:10:11.122Z,1008.90
2018-08-17T15:11:11.101Z,1008.88
2018-08-17T15:12:11.081Z,1008.93
2018-08-17T15:13:11.117Z,1008.94
2018-08-17T15:14:11.053Z,1008.97
2018-08-17T15:15:11.025Z,1008.91
2018-08-17T15:16:11.010Z,1009.01
2018-08-17T15:17:10.993Z,1008.99
2018-08-17T15:18:12.650Z,1009.02
2018-08-17T15:19:10.955Z,1009.05
2018-08-17T15:20:10.936Z,1009.04
2018-08-17T15:21:10.919Z,1009.00
2018-08-17T15:22:10.899Z,1009.06
2018-08-17T15:23:10.881Z,1009.05
2018-08-17T15:24:10.891Z,1009.02
2018-08-17T15:25:10.848Z,1009.01
2018-08-17T15:26:10.829Z,1009.08
2018-08-17T15:27:10.803Z,1009.04
2018-08-17T15:28:10.791Z,1009.01
2018-08-17T15:29:10.773Z,1009.01
2018-08-17T15:30:10.758Z,1009.00
2018-08-17T15:31:10.732Z,1009.02
2018-08-17T15:32:10.718Z,1009.03
2018-08-17T15:33:10.700Z,1009.04
2018-08-17T15:34:10.679Z,1009.03
2018-08-17T15:35:10.658Z,1009.09
2018-08-17T15:36:10.639Z,1009.08
2018-08-17T15:37:10.624Z,1009.18
2018-08-17T15:38:10.605Z,1009.11
2018-08-17T15:39:10.578Z,1009.15
2018-08-17T15:40:10.566Z,1009.23
2018-08-17T15:41:10.556Z,1009.20
2018-08-17T15:42:11.063Z,1009.16
2018-08-17T15:43:10.513Z,1009.27
2018-08-17T15:44:10.489Z,1009.23
2018-08-17T15:45:10.480Z,1009.19
2018-08-17T15:46:10.489Z,1009.30
2018-08-17T15:47:10.436Z,1009.24
2018-08-17T15:48:10.416Z,1009.28
2018-08-17T15:49:10.406Z,1009.36
2018-08-17T15:50:10.380Z,1009.38
2018-08-17T15:51:10.370Z,1009.34
2018-08-17T15:52:10.390Z,1009.34
2018-08-17T15:53:10.333Z,1009.32
2018-08-17T15:54:10.298Z,1009.29
2018-08-17T15:55:10.284Z,1009.23
2018-08-17T15:56:10.263Z,1009.24
2018-08-17T15:57:10.243Z,1009.33
2018-08-17T15:58:10.241Z,1009.32
2018-08-17T15:59:10.207Z,1009.31
2018-08-17T16:00:10.196Z,1009.33
2018-08-17T16:01:18.207Z,1009.39
2018-08-17T16:03:03.307Z,1009.41
2018-08-17T16:04:03.267Z,1009.39
2018-08-17T16:05:56.907Z,1009.45
2018-08-17T16:06:56.860Z,1009.48
2018-08-17T16:08:50.184Z,1009.39
2018-08-17T16:09:50.158Z,1009.38
2018-08-17T16:11:43.812Z,1009.37
2018-08-17T16:12:43.770Z,1009.37
2018-08-17T16:14:37.083Z,1009.34
2018-08-17T16:15:37.063Z,1009.32
2018-08-17T16:17:30.202Z,1009.33
2018-08-17T16:18:30.161Z,1009.30
2018-08-17T16:20:23.804Z,1009.34
2018-08-17T16:21:23.758Z,1009.36
2018-08-17T16:23:16.611Z,1009.45
2018-08-17T16:24:16.563Z,1009.39
2018-08-17T16:26:09.694Z,1009.41
2018-08-17T16:27:09.654Z,1009.41
2018-08-17T16:29:03.322Z,1009.43
2018-08-17T16:30:03.262Z,1009.40
2018-08-17T16:31:56.438Z,1009.42
2018-08-17T16:32:56.356Z,1009.46
2018-08-17T16:34:49.999Z,1009.43
2018-08-17T16:35:49.953Z,1009.40
2018-08-17T16:37:43.591Z,1009.43
2018-08-17T16:38:43.557Z,1009.54
2018-08-17T16:40:36.899Z,1009.54
2018-08-17T16:41:36.852Z,1009.56
2018-08-17T16:43:29.683Z,1009.54
2018-08-17T16:44:29.662Z,1009.55
2018-08-17T16:46:23.325Z,1009.59
2018-08-17T16:47:23.246Z,1009.56
2018-08-17T16:49:16.095Z,1009.63
2018-08-17T16:50:16.047Z,1009.66
2018-08-17T16:52:08.916Z,1009.62
2018-08-17T16:53:08.898Z,1009.66
2018-08-17T16:55:01.990Z,1009.73
2018-08-17T16:56:01.965Z,1009.69
2018-08-17T16:57:56.608Z,1009.78
2018-08-17T16:58:56.583Z,1009.77
2018-08-17T17:00:49.922Z,1009.62
2018-08-17T17:01:49.871Z,1009.75
2018-08-17T17:03:43.299Z,1009.68
2018-08-17T17:04:42.862Z,1009.76
2018-08-17T17:06:36.408Z,1009.76
2018-08-17T17:07:36.265Z,1009.81
2018-08-17T17:09:29.903Z,1009.85
2018-08-17T17:10:29.865Z,1009.83
2018-08-17T17:12:23.468Z,1009.85
2018-08-17T17:13:23.448Z,1009.87
2018-08-17T17:15:16.791Z,1009.79
2018-08-17T17:16:16.744Z,1009.82
2018-08-17T17:18:09.571Z,1009.91
2018-08-17T17:19:09.547Z,1009.92
2018-08-17T17:21:03.198Z,1009.96
2018-08-17T17:22:03.146Z,1010.02
2018-08-17T17:23:56.296Z,1010.06
2018-08-17T17:24:57.064Z,1010.04
2018-08-17T17:26:49.146Z,1010.11
2018-08-17T17:27:49.108Z,1010.08
2018-08-17T17:29:41.891Z,1010.12
2018-08-17T17:30:41.851Z,1010.10
2018-08-17T17:31:41.827Z,1010.10
2018-08-17T17:32:41.810Z,1010.12
2018-08-17T17:33:41.787Z,1010.12
2018-08-17T17:34:41.830Z,1010.12
2018-08-17T17:35:41.746Z,1010.15
2018-08-17T17:36:41.725Z,1010.14
2018-08-17T17:37:41.713Z,1010.08
2018-08-17T17:38:41.678Z,1010.09
2018-08-17T17:39:41.680Z,1010.08
2018-08-17T17:40:41.644Z,1010.12
2018-08-17T17:41:41.622Z,1010.07
2018-08-17T17:42:41.601Z,1010.13
2018-08-17T17:43:41.580Z,1010.18
2018-08-17T17:44:41.608Z,1010.21
2018-08-17T17:45:41.532Z,1010.17
2018-08-17T17:46:41.521Z,1010.16
2018-08-17T17:47:41.494Z,1010.16
2018-08-17T17:48:41.472Z,1010.17
2018-08-17T17:49:41.446Z,1010.19
2018-08-17T17:50:41.428Z,1010.16
2018-08-17T17:51:41.408Z,1010.20
2018-08-17T17:52:41.394Z,1010.14
2018-08-17T17:53:41.370Z,1010.23
2018-08-17T17:54:41.339Z,1010.23
2018-08-17T17:55:41.318Z,1010.22
2018-08-17T17:56:41.294Z,1010.21
2018-08-17T17:57:41.274Z,1010.24
2018-08-17T17:58:41.251Z,1010.26
2018-08-17T17:59:41.227Z,1010.27
2018-08-17T18:00:41.209Z,1010.29
2018-08-17T18:01:41.189Z,1010.22
2018-08-17T18:02:41.160Z,1010.26
2018-08-17T18:03:41.141Z,1010.26
2018-08-17T18:04:41.132Z,1010.26
2018-08-17T18:05:41.095Z,1010.28
2018-08-17T18:06:41.072Z,1010.28
2018-08-17T18:07:41.056Z,1010.29
2018-08-17T18:08:41.030Z,1010.35
2018-08-17T18:09:41.004Z,1010.31
2018-08-17T18:10:40.983Z,1010.32
2018-08-17T18:11:40.963Z,1010.32
2018-08-17T18:12:40.944Z,1010.36
2018-08-17T18:13:40.917Z,1010.44
2018-08-17T18:14:40.905Z,1010.42
2018-08-17T18:15:40.871Z,1010.40
2018-08-17T18:16:40.850Z,1010.38
2018-08-17T18:17:40.825Z,1010.43
2018-08-17T18:18:40.803Z,1010.42
2018-08-17T18:19:40.784Z,1010.45
2018-08-17T18:20:40.759Z,1010.44
2018-08-17T18:21:40.748Z,1010.45
2018-08-17T18:22:40.714Z,1010.48
2018-08-17T18:23:40.694Z,1010.49
2018-08-17T18:24:40.665Z,1010.52
2018-08-17T18:25:40.645Z,1010.49
2018-08-17T18:26:40.632Z,1010.51
2018-08-17T18:27:40.596Z,1010.53
2018-08-17T18:28:40.577Z,1010.49
2018-08-17T18:29:40.554Z,1010.50
2018-08-17T18:30:40.584Z,1010.51
2018-08-17T18:31:40.515Z,1010.49
2018-08-17T18:32:40.485Z,1010.48
2018-08-17T18:33:40.469Z,1010.49
2018-08-17T18:34:40.437Z,1010.50
2018-08-17T18:35:40.415Z,1010.54
2018-08-17T18:36:40.395Z,1010.54
2018-08-17T18:37:40.366Z,1010.55
2018-08-17T18:38:40.341Z,1010.55
2018-08-17T18:39:40.325Z,1010.57
2018-08-17T18:40:40.306Z,1010.62
2018-08-17T18:41:40.274Z,1010.62
2018-08-17T18:42:40.250Z,1010.63
2018-08-17T18:43:40.228Z,1010.67
2018-08-17T18:44:40.203Z,1010.65
2018-08-17T18:45:40.179Z,1010.66
2018-08-17T18:46:40.184Z,1010.69
2018-08-17T18:47:40.127Z,1010.75
2018-08-17T18:48:40.110Z,1010.71
2018-08-17T18:49:40.085Z,1010.71
2018-08-17T18:50:40.063Z,1010.70
2018-08-17T18:51:40.035Z,1010.73
2018-08-17T18:52:40.068Z,1010.70
2018-08-17T18:53:39.991Z,1010.69
2018-08-17T18:54:39.961Z,1010.75
2018-08-17T18:55:39.945Z,1010.73
2018-08-17T18:56:39.921Z,1010.77
2018-08-17T18:57:39.891Z,1010.76
2018-08-17T18:58:39.872Z,1010.81
2018-08-17T18:59:39.849Z,1010.81
2018-08-17T19:00:39.832Z,1010.82
2018-08-17T19:01:39.807Z,1010.85
2018-08-17T19:02:39.776Z,1010.88
2018-08-17T19:03:39.754Z,1010.87
2018-08-17T19:04:39.734Z,1010.93
2018-08-17T19:05:39.704Z,1010.96
2018-08-17T19:06:39.689Z,1010.98
2018-08-17T19:07:39.660Z,1011.00
2018-08-17T19:08:39.634Z,1011.00
2018-08-17T19:09:39.607Z,1011.00
2018-08-17T19:10:39.584Z,1010.98
2018-08-17T19:11:39.565Z,1010.95
2018-08-17T19:12:39.537Z,1010.98
2018-08-17T19:13:39.516Z,1011.02
2018-08-17T19:14:39.504Z,1010.99
2018-08-17T19:15:39.535Z,1011.03
2018-08-17T19:16:39.442Z,1011.01
2018-08-17T19:17:39.419Z,1011.00
2018-08-17T19:18:39.392Z,1011.01
2018-08-17T19:19:39.373Z,1011.01
2018-08-17T19:20:39.342Z,1011.01
2018-08-17T19:21:39.332Z,1010.98
2018-08-17T19:22:39.302Z,1011.04
2018-08-17T19:23:39.274Z,1011.06
2018-08-17T19:24:39.256Z,1011.08
2018-08-17T19:25:39.225Z,1011.06
2018-08-17T19:26:39.200Z,1011.11
2018-08-17T19:27:39.179Z,1011.12
2018-08-17T19:28:39.153Z,1011.10
2018-08-17T19:29:39.129Z,1011.10
2018-08-17T19:30:39.101Z,1011.14
2018-08-17T19:31:39.080Z,1011.15
2018-08-17T19:32:39.056Z,1011.16
2018-08-17T19:33:39.029Z,1011.17
2018-08-17T19:34:39.021Z,1011.18
2018-08-17T19:35:38.984Z,1011.18
2018-08-17T19:36:38.965Z,1011.18
2018-08-17T19:37:38.934Z,1011.16
2018-08-17T19:38:38.911Z,1011.21
2018-08-17T19:39:38.887Z,1011.22
2018-08-17T19:40:38.864Z,1011.23
2018-08-17T19:41:38.837Z,1011.24
2018-08-17T19:42:38.816Z,1011.21
2018-08-17T19:43:38.788Z,1011.25
2018-08-17T19:44:38.766Z,1011.25
2018-08-17T19:45:38.746Z,1011.28
2018-08-17T19:46:38.711Z,1011.28
2018-08-17T19:47:38.717Z,1011.22
2018-08-17T19:48:38.673Z,1011.24
2018-08-17T19:49:38.653Z,1011.26
2018-08-17T19:50:38.625Z,1011.23
2018-08-17T19:51:38.613Z,1011.24
2018-08-17T19:52:38.573Z,1011.23
2018-08-17T19:53:38.547Z,1011.28
2018-08-17T19:54:38.524Z,1011.31
2018-08-17T19:55:38.504Z,1011.31
2018-08-17T19:56:38.470Z,1011.31
2018-08-17T19:57:38.449Z,1011.33
2018-08-17T19:58:38.426Z,1011.28
2018-08-17T19:59:38.403Z,1011.36
2018-08-17T20:00:38.388Z,1011.39
2018-08-17T20:01:38.353Z,1011.36
2018-08-17T20:02:38.336Z,1011.39
2018-08-17T20:03:38.306Z,1011.42
2018-08-17T20:04:38.280Z,1011.42
2018-08-17T20:05:38.255Z,1011.44
2018-08-17T20:06:38.231Z,1011.44
2018-08-17T20:07:38.250Z,1011.43
2018-08-17T20:08:38.184Z,1011.44
2018-08-17T20:09:38.153Z,1011.46
2018-08-17T20:10:38.135Z,1011.44
2018-08-17T20:11:38.108Z,1011.41
2018-08-17T20:12:38.080Z,1011.43
2018-08-17T20:13:38.062Z,1011.44
2018-08-17T20:14:38.036Z,1011.48
2018-08-17T20:15:38.023Z,1011.47
2018-08-17T20:16:37.991Z,1011.50
2018-08-17T20:17:37.961Z,1011.48
2018-08-17T20:18:37.937Z,1011.51
2018-08-17T20:19:37.914Z,1011.51
2018-08-17T20:20:37.889Z,1011.49
2018-08-17T20:21:37.865Z,1011.50
2018-08-17T20:22:37.837Z,1011.47
2018-08-17T20:23:37.815Z,1011.45
2018-08-17T20:24:37.793Z,1011.50
2018-08-17T20:25:37.776Z,1011.50
2018-08-17T20:26:38.092Z,1011.54
2018-08-17T20:27:37.716Z,1011.54
2018-08-17T20:28:37.693Z,1011.56
2018-08-17T20:29:37.666Z,1011.54
2018-08-17T20:30:37.643Z,1011.56
2018-08-17T20:31:37.618Z,1011.59
2018-08-17T20:32:37.595Z,1011.58
2018-08-17T20:33:37.567Z,1011.57
2018-08-17T20:34:37.543Z,1011.60
2018-08-17T20:35:37.520Z,1011.60
2018-08-17T20:36:37.514Z,1011.63
2018-08-17T20:37:37.474Z,1011.63